Main page
METAR-TAF:

METAR-TAF

Airports :

Linton-on-Ouse, England

RAF Linton-on-Ouse

latitude: 54-03N, longitude: 001-15W, elevation: 16 m

Current weather observation

The report was made 1 hour and 5 minutes ago, at 17:50 UTC
Wind 9 kt from the East
Temperature 10°C
Humidity 66%
Pressure 1026 hPa
Visibility 10 km or more

METAR: EGXU 261750Z AUTO 09009KT 9999 // NCD 10/04 Q1026

Time: 19:55 (18:55 UTC)


TAF: missing

Weather observations and forecasts of more than 4000 airports (METAR and TAF reports).

The available stations are represented by yellow and red dots on the map.

Hover mouse over dot to see the name of the station.

Then click to see weather observations and forecasts.

To change the map : click on the green buttons with a black cross to zoom in, on the green button with a dash to zoom out, or on the green arrows for adjacent maps.


METAR-TAF: